Time;durP1;ratioP1;P1;durP2;ratioP2;P2;SDS_P1;SDS_P2;PMS_P1;PMS_P2;Temp;Humidity;BMP_temperature;BMP_pressure;BME280_temperature;BME280_humidity;BME280_pressure;Samples;Min_cycle;Max_cycle;Signal;HPM_P1;HPM_P2
2021/01/05 00:01:39;;;;;;;13.48;9.50;;;-6.00;71.60;;;;;;5136646;28;20037;-74
2021/01/05 00:04:11;;;;;;;17.10;10.48;;;-6.00;72.00;;;;;;5168777;28;20045;-73
2021/01/05 00:06:43;;;;;;;13.82;10.25;;;-6.00;71.50;;;;;;5172140;28;20046;-73
2021/01/05 00:09:14;;;;;;;13.98;9.25;;;-6.00;71.60;;;;;;5170161;28;20571;-72
2021/01/05 00:12:11;;;;;;;14.95;9.18;;;-6.00;71.60;;;;;;5160319;28;20049;-74
2021/01/05 00:14:44;;;;;;;14.32;9.65;;;-6.10;71.80;;;;;;5172220;28;20053;-73
2021/01/05 00:17:17;;;;;;;12.05;8.73;;;-6.10;72.00;;;;;;5168899;28;20734;-73
2021/01/05 00:19:49;;;;;;;12.45;8.48;;;-6.10;71.80;;;;;;5169792;28;20502;-72
2021/01/05 00:22:20;;;;;;;12.48;9.32;;;-6.10;71.80;;;;;;5169821;28;20073;-73
2021/01/05 00:24:52;;;;;;;12.30;8.73;;;-6.10;71.90;;;;;;5155782;28;20086;-74
2021/01/05 00:27:23;;;;;;;13.38;9.60;;;-6.20;71.40;;;;;;5170139;28;20107;-73
2021/01/05 00:29:55;;;;;;;14.68;9.27;;;-6.20;71.60;;;;;;5173359;28;20038;-73
2021/01/05 00:32:26;;;;;;;12.57;9.00;;;-6.20;71.80;;;;;;5170343;28;20416;-74
2021/01/05 00:34:57;;;;;;;12.05;8.85;;;-6.20;71.70;;;;;;5169336;28;20054;-73
2021/01/05 00:37:30;;;;;;;12.38;8.40;;;-6.30;71.10;;;;;;5168990;28;20464;-74
2021/01/05 00:40:01;;;;;;;12.30;9.18;;;-6.40;71.30;;;;;;5171639;28;20385;-74
2021/01/05 00:42:33;;;;;;;12.05;8.57;;;-6.40;72.10;;;;;;5168460;28;20468;-74
2021/01/05 00:45:06;;;;;;;12.05;8.50;;;-6.40;72.00;;;;;;5168801;28;20038;-73
2021/01/05 00:47:38;;;;;;;12.30;8.70;;;-6.40;72.00;;;;;;5170344;28;20520;-73
2021/01/05 00:50:10;;;;;;;11.70;8.70;;;-6.30;72.20;;;;;;5169494;28;20599;-73
2021/01/05 00:52:42;;;;;;;14.95;10.00;;;-6.30;72.50;;;;;;5153243;28;20050;-73
2021/01/05 00:55:14;;;;;;;11.77;9.23;;;-6.30;72.20;;;;;;5154787;28;20046;-74
2021/01/05 00:57:49;;;;;;;12.05;8.25;;;-6.30;71.70;;;;;;5170396;28;20073;-74
2021/01/05 01:00:27;;;;;;;12.98;8.95;;;-6.40;71.60;;;;;;5150872;28;20038;-74
2021/01/05 01:03:06;;;;;;;13.38;8.80;;;-6.40;72.00;;;;;;5169090;28;20050;-73
2021/01/05 01:05:41;;;;;;;13.82;8.00;;;-6.50;72.20;;;;;;5170447;28;20056;-74
2021/01/05 01:08:17;;;;;;;14.10;8.90;;;-6.50;72.10;;;;;;5155738;28;20054;-73
2021/01/05 01:10:54;;;;;;;13.45;8.80;;;-6.50;72.80;;;;;;5166790;28;20051;-73
2021/01/05 01:13:29;;;;;;;13.23;8.95;;;-6.50;72.20;;;;;;5170081;28;20061;-73
2021/01/05 01:16:02;;;;;;;12.82;9.15;;;-6.60;72.10;;;;;;5168132;28;20045;-74
2021/01/05 01:18:35;;;;;;;12.43;8.93;;;-6.60;72.30;;;;;;5169326;28;20042;-73
2021/01/05 01:21:08;;;;;;;11.98;8.13;;;-6.60;72.70;;;;;;5153557;28;20045;-73
2021/01/05 01:23:40;;;;;;;12.27;8.27;;;-6.50;72.80;;;;;;5172045;28;20121;-75
2021/01/05 01:26:11;;;;;;;12.63;7.70;;;-6.50;73.30;;;;;;5147328;28;20046;-74
2021/01/05 01:28:43;;;;;;;14.32;8.68;;;-6.50;73.00;;;;;;5171017;28;20050;-73
2021/01/05 01:31:16;;;;;;;12.25;8.25;;;-6.50;72.90;;;;;;5166402;28;20126;-73
2021/01/05 01:33:48;;;;;;;12.93;8.73;;;-6.50;72.60;;;;;;5153602;28;20511;-73
2021/01/05 01:36:20;;;;;;;11.50;8.18;;;-6.50;72.70;;;;;;5168312;28;20038;-73
2021/01/05 01:38:51;;;;;;;11.57;8.25;;;-6.50;72.60;;;;;;5154503;28;20169;-75
2021/01/05 01:41:25;;;;;;;12.15;8.30;;;-6.50;72.80;;;;;;5157723;28;20805;-73
2021/01/05 01:44:02;;;;;;;12.05;8.30;;;-6.50;73.00;;;;;;5168182;28;20045;-74
2021/01/05 01:46:35;;;;;;;11.55;8.25;;;-6.60;72.90;;;;;;5157929;28;20049;-74
2021/01/05 01:49:09;;;;;;;11.02;7.50;;;-6.60;73.30;;;;;;5136023;28;20100;-73
2021/01/05 01:51:43;;;;;;;10.25;8.00;;;-6.60;73.70;;;;;;5151104;28;20043;-74
2021/01/05 01:54:37;;;;;;;10.75;8.15;;;-6.60;73.70;;;;;;5167251;28;20058;-73
2021/01/05 01:57:35;;;;;;;11.23;7.60;;;-6.50;73.30;;;;;;5151198;28;20054;-73
2021/01/05 02:00:42;;;;;;;11.65;8.13;;;-6.60;73.20;;;;;;5151606;28;20034;-72
2021/01/05 02:03:51;;;;;;;14.65;9.18;;;-6.60;74.20;;;;;;5144620;28;20038;-73
2021/01/05 02:06:30;;;;;;;14.10;8.68;;;-6.60;73.40;;;;;;5143716;28;20516;-72
2021/01/05 02:09:32;;;;;;;14.13;8.23;;;-6.60;73.80;;;;;;5150577;28;20365;-72
2021/01/05 02:12:10;;;;;;;;;;;-6.60;74.10;;;;;;5169731;28;20038;-74
2021/01/05 02:15:09;;;;;;;15.82;8.80;;;-6.60;74.40;;;;;;5168810;28;19933;-73
2021/01/05 02:18:01;;;;;;;11.70;7.88;;;-6.60;74.50;;;;;;5167304;28;20128;-72
2021/01/05 02:20:57;;;;;;;12.93;8.52;;;-6.70;74.70;;;;;;5151424;28;20045;-73
2021/01/05 02:24:10;;;;;;;11.27;8.33;;;-6.70;74.70;;;;;;5168430;28;20568;-72
2021/01/05 02:27:10;;;;;;;12.35;8.68;;;-6.60;75.00;;;;;;5149919;28;20532;-73
2021/01/05 02:30:06;;;;;;;11.38;8.40;;;-6.60;74.30;;;;;;5166790;28;20452;-74
2021/01/05 02:33:10;;;;;;;13.45;9.35;;;-6.60;74.20;;;;;;5152900;28;20112;-74
2021/01/05 02:35:55;;;;;;;14.48;9.93;;;-6.60;74.70;;;;;;5150307;28;20086;-73
2021/01/05 02:39:14;;;;;;;14.70;8.70;;;-6.60;75.10;;;;;;5168839;28;20189;-73
2021/01/05 02:42:44;;;;;;;13.07;8.68;;;-6.60;74.40;;;;;;5167121;28;20072;-75
2021/01/05 02:45:49;;;;;;;12.93;8.68;;;-6.70;74.50;;;;;;5169113;28;20057;-75
2021/01/05 02:49:14;;;;;;;9.95;7.78;;;-6.70;74.20;;;;;;5153031;28;20771;-75
2021/01/05 02:52:31;;;;;;;15.85;8.45;;;-6.60;74.10;;;;;;5163329;28;20187;-75
2021/01/05 02:55:59;;;;;;;12.40;8.23;;;-6.70;74.30;;;;;;5163443;28;20516;-74
2021/01/05 02:59:08;;;;;;;11.05;7.55;;;-6.80;74.10;;;;;;5166661;28;20084;-74
2021/01/05 03:02:36;;;;;;;13.45;8.70;;;-6.90;74.30;;;;;;5151473;28;20073;-75
2021/01/05 03:05:26;;;;;;;13.50;8.63;;;-6.90;74.50;;;;;;5166546;28;20065;-73
2021/01/05 03:08:22;;;;;;;;;;;-7.00;74.50;;;;;;5168603;28;20521;-74
2021/01/05 03:11:19;;;;;;;12.65;8.70;;;-7.00;74.40;;;;;;5168593;28;19956;-73
2021/01/05 03:14:16;;;;;;;12.60;7.97;;;-7.00;74.30;;;;;;5168613;28;20045;-73
2021/01/05 03:17:35;;;;;;;11.60;8.18;;;-7.00;73.80;;;;;;5091710;28;20130;-72
2021/01/05 03:20:35;;;;;;;11.02;8.32;;;-7.10;74.30;;;;;;5155561;28;20058;-72
2021/01/05 03:23:27;;;;;;;11.73;8.20;;;-7.10;74.30;;;;;;5168066;28;20057;-73
2021/01/05 03:26:50;;;;;;;12.50;7.97;;;-7.20;74.00;;;;;;5127529;28;20323;-74
2021/01/05 03:29:40;;;;;;;11.77;8.00;;;-7.30;73.90;;;;;;5166412;28;20737;-72
2021/01/05 03:32:31;;;;;;;10.25;8.00;;;-7.30;74.50;;;;;;5149281;28;20053;-74
2021/01/05 03:35:22;;;;;;;12.75;8.45;;;-7.30;74.70;;;;;;5165323;28;20129;-73
2021/01/05 03:38:12;;;;;;;11.60;7.90;;;-7.20;75.00;;;;;;5164967;28;20069;-73
2021/01/05 03:41:02;;;;;;;12.07;8.45;;;-7.20;74.60;;;;;;5163988;28;20049;-73
2021/01/05 03:43:52;;;;;;;10.80;7.90;;;-7.20;74.50;;;;;;5168955;28;20072;-73
2021/01/05 03:46:42;;;;;;;;;;;-7.20;74.40;;;;;;5166648;28;20049;-75
2021/01/05 03:49:33;;;;;;;12.88;8.48;;;-7.10;74.40;;;;;;5165656;28;19932;-73
2021/01/05 03:52:24;;;;;;;13.40;8.10;;;-7.10;74.40;;;;;;5147612;28;20499;-73
2021/01/05 03:55:15;;;;;;;12.32;8.00;;;-7.10;74.80;;;;;;5164401;28;20052;-72
2021/01/05 03:58:06;;;;;;;10.57;7.45;;;-7.00;75.00;;;;;;5147584;28;20035;-73
2021/01/05 04:01:16;;;;;;;;;;;-7.00;74.80;;;;;;5085336;29;20044;-73
2021/01/05 04:03:47;;;;;;;14.98;8.73;;;-7.10;74.50;;;;;;5082329;29;19922;-73
2021/01/05 04:06:19;;;;;;;12.60;9.00;;;-7.10;74.60;;;;;;5127405;28;20100;-74
2021/01/05 04:08:50;;;;;;;12.25;8.80;;;-7.00;75.00;;;;;;5165370;28;20744;-74
2021/01/05 04:11:21;;;;;;;13.10;8.63;;;-7.00;74.70;;;;;;5165378;28;20042;-73
2021/01/05 04:13:53;;;;;;;11.57;8.07;;;-6.90;74.80;;;;;;5166790;28;20073;-74
2021/01/05 04:16:24;;;;;;;18.42;9.65;;;-6.90;74.90;;;;;;5163090;28;20061;-73
2021/01/05 04:18:56;;;;;;;13.07;9.38;;;-6.90;75.20;;;;;;5163711;28;20116;-73
2021/01/05 04:21:28;;;;;;;12.10;8.73;;;-6.80;75.40;;;;;;5164791;28;20042;-73
2021/01/05 04:23:59;;;;;;;12.13;8.35;;;-6.80;75.10;;;;;;5169284;28;20042;-73
2021/01/05 04:26:35;;;;;;;13.15;8.65;;;-6.80;75.20;;;;;;5165159;28;20042;-73
2021/01/05 04:29:06;;;;;;;13.45;8.68;;;-6.80;75.30;;;;;;5165080;28;20038;-74
2021/01/05 04:31:39;;;;;;;11.57;8.02;;;-6.70;75.00;;;;;;5169284;28;20385;-74
2021/01/05 04:34:13;;;;;;;12.52;8.82;;;-6.70;75.20;;;;;;5167778;28;20034;-73
2021/01/05 04:36:45;;;;;;;14.23;8.85;;;-6.70;75.30;;;;;;5151681;28;20041;-73
2021/01/05 04:39:16;;;;;;;13.05;8.93;;;-6.70;75.30;;;;;;5167372;28;20532;-74
2021/01/05 04:42:01;;;;;;;13.52;8.57;;;-6.80;75.40;;;;;;5169920;28;20500;-74
2021/01/05 04:44:49;;;;;;;12.00;8.70;;;-6.70;75.30;;;;;;5167254;28;20041;-73
2021/01/05 04:47:31;;;;;;;12.93;9.00;;;-6.70;74.80;;;;;;5169173;28;20065;-73
2021/01/05 04:50:31;;;;;;;11.90;8.23;;;-6.70;74.70;;;;;;5169387;28;20101;-73
2021/01/05 04:53:11;;;;;;;;;;;-6.70;75.20;;;;;;5166562;28;20757;-74
2021/01/05 04:55:55;;;;;;;14.95;10.13;;;-6.60;75.10;;;;;;5168160;28;20659;-75
2021/01/05 04:58:38;;;;;;;14.70;9.80;;;-6.60;74.80;;;;;;5166256;28;20046;-76
2021/01/05 05:01:31;;;;;;;15.68;10.90;;;-6.60;75.00;;;;;;5165824;28;20144;-76
2021/01/05 05:04:34;;;;;;;14.88;10.93;;;-6.50;75.10;;;;;;5165600;28;20092;-75
2021/01/05 05:07:30;;;;;;;15.63;10.30;;;-6.50;74.90;;;;;;5167382;28;20162;-77
2021/01/05 05:10:06;;;;;;;14.95;10.35;;;-6.50;74.60;;;;;;5166925;28;20054;-75
2021/01/05 05:12:40;;;;;;;13.60;10.27;;;-6.50;74.10;;;;;;5167138;28;20042;-75
2021/01/05 05:15:23;;;;;;;15.82;10.13;;;-6.50;74.10;;;;;;5165284;28;20045;-76
2021/01/05 05:18:31;;;;;;;16.92;10.60;;;-6.40;74.40;;;;;;5166235;28;20049;-75
2021/01/05 05:21:31;;;;;;;14.77;9.63;;;-6.40;74.10;;;;;;5149091;28;20121;-76
2021/01/05 05:24:20;;;;;;;;;;;-6.30;74.20;;;;;;5170458;28;20035;-75
2021/01/05 05:27:17;;;;;;;14.77;9.85;;;-6.40;74.10;;;;;;5148581;28;20451;-74
2021/01/05 05:29:57;;;;;;;13.15;9.07;;;-6.30;74.00;;;;;;5167210;28;20093;-74
2021/01/05 05:32:36;;;;;;;13.95;9.60;;;-6.30;74.00;;;;;;5164190;28;20075;-74
2021/01/05 05:35:41;;;;;;;18.45;10.85;;;-6.30;73.80;;;;;;5163337;28;20109;-74
2021/01/05 05:38:36;;;;;;;14.65;9.50;;;-6.20;74.10;;;;;;5101138;28;20054;-74
2021/01/05 05:41:28;;;;;;;14.15;10.05;;;-6.20;74.20;;;;;;5168503;28;20038;-75
2021/01/05 05:44:19;;;;;;;15.55;10.75;;;-6.20;74.10;;;;;;5166100;28;20045;-75
2021/01/05 05:47:06;;;;;;;13.82;9.73;;;-6.10;74.00;;;;;;5164774;28;20092;-75
2021/01/05 05:49:49;;;;;;;15.57;10.73;;;-6.10;73.40;;;;;;5165226;28;20438;-75
2021/01/05 05:52:32;;;;;;;14.27;10.45;;;-6.10;73.80;;;;;;5165998;28;20751;-74
2021/01/05 05:55:18;;;;;;;16.67;10.95;;;-6.10;73.80;;;;;;5165610;28;20500;-75
2021/01/05 05:57:53;;;;;;;16.30;11.23;;;-6.10;73.70;;;;;;5167523;28;20903;-75
2021/01/05 06:00:36;;;;;;;15.75;10.02;;;-6.10;73.70;;;;;;5165351;28;20092;-74
2021/01/05 06:03:12;;;;;;;15.23;9.85;;;-6.10;73.40;;;;;;5169146;28;20065;-74
2021/01/05 06:05:43;;;;;;;12.98;9.60;;;-6.10;73.40;;;;;;5150934;28;20065;-74
2021/01/05 06:08:17;;;;;;;15.35;9.88;;;-6.10;72.90;;;;;;5169317;28;20050;-73
2021/01/05 06:10:49;;;;;;;13.88;9.60;;;-6.10;72.90;;;;;;5169466;28;20047;-74
2021/01/05 06:13:21;;;;;;;15.63;9.57;;;-6.10;73.70;;;;;;5158254;28;20050;-77
2021/01/05 06:15:52;;;;;;;14.60;9.32;;;-6.00;73.50;;;;;;5151101;28;20100;-74
2021/01/05 06:18:24;;;;;;;18.73;10.80;;;-6.00;73.50;;;;;;5168963;28;20488;-76
2021/01/05 06:20:55;;;;;;;13.63;9.20;;;-6.00;73.80;;;;;;5168749;28;20049;-74
2021/01/05 06:23:27;;;;;;;15.93;9.98;;;-6.00;73.50;;;;;;5170135;28;20050;-74
2021/01/05 06:25:58;;;;;;;13.18;8.90;;;-5.90;73.30;;;;;;5166922;28;20045;-75
2021/01/05 06:28:30;;;;;;;14.88;9.70;;;-5.90;73.20;;;;;;5165128;28;20054;-74
2021/01/05 06:31:01;;;;;;;13.77;9.88;;;-5.90;73.20;;;;;;5167164;28;20054;-73
2021/01/05 06:33:33;;;;;;;13.73;8.95;;;-5.90;73.50;;;;;;5167495;28;20104;-74
2021/01/05 06:36:05;;;;;;;13.10;9.73;;;-5.90;73.60;;;;;;5166515;28;20042;-73
2021/01/05 06:38:36;;;;;;;16.85;10.18;;;-5.90;73.60;;;;;;5165307;28;20545;-73
2021/01/05 06:41:08;;;;;;;14.10;9.60;;;-5.90;73.40;;;;;;5169373;28;20121;-73
2021/01/05 06:43:39;;;;;;;12.23;8.13;;;-5.90;73.60;;;;;;5148604;28;20038;-73
2021/01/05 06:46:11;;;;;;;13.90;9.45;;;-5.80;73.70;;;;;;5167551;28;20038;-73
2021/01/05 06:48:43;;;;;;;15.18;9.35;;;-5.80;73.60;;;;;;5164287;28;20489;-73
2021/01/05 06:51:14;;;;;;;14.88;9.68;;;-5.70;73.80;;;;;;5163543;28;20053;-74
2021/01/05 06:53:46;;;;;;;17.27;11.27;;;-5.60;74.00;;;;;;5166163;28;20157;-73
2021/01/05 06:56:17;;;;;;;21.00;12.70;;;-5.60;74.50;;;;;;5168665;28;20049;-73
2021/01/05 06:58:55;;;;;;;22.35;13.70;;;-5.50;75.00;;;;;;5151040;28;20196;-73
2021/01/05 07:01:27;;;;;;;25.65;14.63;;;-5.50;75.60;;;;;;5168386;28;20050;-73
2021/01/05 07:03:58;;;;;;;24.58;15.05;;;-5.50;75.90;;;;;;5169637;28;20101;-75
2021/01/05 07:06:30;;;;;;;24.67;15.50;;;-5.60;76.60;;;;;;5166779;28;20049;-72
2021/01/05 07:09:01;;;;;;;25.70;14.90;;;-5.60;77.10;;;;;;5136698;28;20136;-73
2021/01/05 07:11:32;;;;;;;24.02;15.05;;;-5.70;78.20;;;;;;5167210;28;20042;-76
2021/01/05 07:14:04;;;;;;;25.13;15.38;;;-5.70;78.20;;;;;;5164122;28;20034;-74
2021/01/05 07:16:35;;;;;;;25.65;15.15;;;-5.70;78.20;;;;;;5166104;28;20054;-75
2021/01/05 07:19:07;;;;;;;30.00;16.45;;;-5.70;78.40;;;;;;5164183;28;20041;-73
2021/01/05 07:21:39;;;;;;;25.02;16.48;;;-5.70;78.20;;;;;;5162704;28;20054;-75
2021/01/05 07:24:11;;;;;;;24.83;16.65;;;-5.70;78.10;;;;;;5167656;28;20073;-74
2021/01/05 07:26:48;;;;;;;27.70;17.17;;;-5.80;78.30;;;;;;5164031;28;20046;-76
2021/01/05 07:29:21;;;;;;;26.67;15.32;;;-5.80;78.60;;;;;;5151800;28;20073;-75
2021/01/05 07:31:52;;;;;;;27.75;15.88;;;-5.80;78.50;;;;;;5150970;28;20609;-73
2021/01/05 07:34:24;;;;;;;24.27;15.88;;;-5.80;78.50;;;;;;5166553;28;20046;-73
2021/01/05 07:37:01;;;;;;;23.52;15.63;;;-5.80;78.90;;;;;;5167505;28;20048;-73
2021/01/05 07:39:33;;;;;;;24.20;14.90;;;-5.90;79.00;;;;;;5157124;28;20092;-73
2021/01/05 07:42:16;;;;;;;23.83;14.70;;;-5.90;78.60;;;;;;5166179;28;20054;-74
2021/01/05 07:44:50;;;;;;;25.48;15.63;;;-6.00;78.90;;;;;;5169562;28;20046;-74
2021/01/05 07:47:25;;;;;;;25.50;15.40;;;-5.90;79.10;;;;;;5162377;28;20517;-72
2021/01/05 07:49:57;;;;;;;24.42;15.13;;;-5.80;78.60;;;;;;5165929;28;20420;-72
2021/01/05 07:52:35;;;;;;;26.75;15.85;;;-5.80;77.90;;;;;;5160930;28;20049;-74
2021/01/05 07:55:10;;;;;;;24.23;15.50;;;-5.80;78.00;;;;;;5160644;28;20048;-72
2021/01/05 07:57:41;;;;;;;22.25;14.07;;;-5.80;77.90;;;;;;5164243;28;20042;-71
2021/01/05 08:00:16;;;;;;;23.20;14.68;;;-5.80;78.00;;;;;;5159416;28;20046;-72
2021/01/05 08:02:47;;;;;;;23.67;14.27;;;-5.70;78.10;;;;;;5159791;28;20121;-72
2021/01/05 08:05:21;;;;;;;22.38;14.52;;;-5.80;77.60;;;;;;5159886;28;20092;-72
2021/01/05 08:07:53;;;;;;;25.33;15.85;;;-5.70;77.80;;;;;;5164486;28;20503;-72
2021/01/05 08:10:31;;;;;;;24.23;14.88;;;-5.70;77.40;;;;;;5161471;28;20046;-71
2021/01/05 08:13:11;;;;;;;20.60;13.80;;;-5.70;77.70;;;;;;5162475;28;20050;-72
2021/01/05 08:15:43;;;;;;;22.85;14.80;;;-5.60;77.20;;;;;;5163749;28;20105;-74
2021/01/05 08:18:15;;;;;;;22.52;14.63;;;-5.50;77.60;;;;;;5166282;28;20552;-74
2021/01/05 08:20:46;;;;;;;24.40;14.25;;;-5.60;77.50;;;;;;5163378;28;20586;-73
2021/01/05 08:23:18;;;;;;;24.90;14.85;;;-5.60;77.00;;;;;;5166508;28;20042;-73
2021/01/05 08:25:50;;;;;;;24.15;14.45;;;-5.60;77.30;;;;;;5148919;28;20049;-72
2021/01/05 08:28:21;;;;;;;21.25;14.10;;;-5.60;77.50;;;;;;5168142;28;20072;-73
2021/01/05 08:30:53;;;;;;;19.52;14.15;;;-5.60;77.30;;;;;;5164171;28;20519;-72
2021/01/05 08:33:24;;;;;;;19.42;13.25;;;-5.60;77.20;;;;;;5166194;28;20049;-73
2021/01/05 08:35:55;;;;;;;18.95;13.27;;;-5.60;77.40;;;;;;5163351;28;20136;-74
2021/01/05 08:38:27;;;;;;;22.15;13.98;;;-5.60;76.70;;;;;;5164375;28;20038;-74
2021/01/05 08:40:59;;;;;;;23.50;14.52;;;-5.60;76.70;;;;;;5164791;28;20104;-75
2021/01/05 08:43:30;;;;;;;21.83;14.98;;;-5.50;76.80;;;;;;5156157;28;20470;-74
2021/01/05 08:46:02;;;;;;;21.27;13.82;;;-5.40;76.60;;;;;;5153578;28;20800;-74
2021/01/05 08:48:33;;;;;;;18.70;13.43;;;-5.30;76.60;;;;;;5170444;28;20053;-75
2021/01/05 08:51:04;;;;;;;19.58;14.23;;;-5.20;75.60;;;;;;5169997;28;20449;-75
2021/01/05 08:53:36;;;;;;;20.98;13.95;;;-5.20;75.20;;;;;;5151963;28;20050;-74
2021/01/05 08:56:25;;;;;;;21.45;15.30;;;-5.10;75.50;;;;;;5168414;28;20443;-74
2021/01/05 08:58:57;;;;;;;24.73;15.52;;;-5.00;74.90;;;;;;5166417;28;20034;-74
2021/01/05 09:01:29;;;;;;;23.30;15.00;;;-4.90;75.00;;;;;;5162608;28;20045;-74
2021/01/05 09:04:00;;;;;;;24.23;14.73;;;-4.70;74.80;;;;;;5168142;28;20112;-74
2021/01/05 09:06:32;;;;;;;24.77;15.07;;;-4.60;74.30;;;;;;5164823;28;20109;-73
2021/01/05 09:09:03;;;;;;;20.25;13.70;;;-4.50;73.80;;;;;;5165033;28;20420;-74
2021/01/05 09:11:35;;;;;;;24.48;15.45;;;-4.40;73.40;;;;;;5168035;28;20396;-73
2021/01/05 09:14:06;;;;;;;21.98;14.52;;;-4.30;73.50;;;;;;5164572;28;20038;-75
2021/01/05 09:16:37;;;;;;;25.25;14.93;;;-4.20;72.60;;;;;;5157386;28;20563;-75
2021/01/05 09:19:09;;;;;;;23.38;16.02;;;-4.10;72.00;;;;;;5151890;28;20050;-74
2021/01/05 09:21:46;;;;;;;21.80;15.00;;;-4.10;71.20;;;;;;5163771;28;20050;-73
2021/01/05 09:24:19;;;;;;;20.48;13.95;;;-4.10;71.60;;;;;;5149453;28;20074;-74
2021/01/05 09:26:52;;;;;;;20.83;14.65;;;-4.00;71.70;;;;;;5163293;28;20093;-73
2021/01/05 09:29:26;;;;;;;20.13;14.40;;;-3.90;72.30;;;;;;5166257;28;20042;-74
2021/01/05 09:31:58;;;;;;;20.25;15.27;;;-3.80;72.60;;;;;;5163892;28;20504;-74
2021/01/05 09:34:29;;;;;;;20.80;14.40;;;-3.60;72.40;;;;;;5165210;28;20038;-73
2021/01/05 09:37:03;;;;;;;20.50;13.35;;;-3.60;72.40;;;;;;5164854;28;20060;-73
2021/01/05 09:39:35;;;;;;;18.88;13.55;;;-3.40;72.60;;;;;;5173530;28;20049;-74
2021/01/05 09:42:06;;;;;;;20.48;15.40;;;-3.40;71.60;;;;;;5168631;28;20100;-76
2021/01/05 09:44:38;;;;;;;20.27;15.02;;;-3.30;71.80;;;;;;5169036;28;20045;-77
2021/01/05 09:47:10;;;;;;;20.00;14.23;;;-3.30;71.60;;;;;;5166815;28;20096;-75
2021/01/05 09:49:41;;;;;;;20.25;13.73;;;-3.40;71.50;;;;;;5132372;28;20043;-73
2021/01/05 09:52:13;;;;;;;16.00;12.07;;;-3.40;71.70;;;;;;5165549;28;20043;-74
2021/01/05 09:54:47;;;;;;;17.17;13.07;;;-3.60;71.20;;;;;;5172080;28;20072;-72
2021/01/05 09:57:19;;;;;;;19.60;13.75;;;-3.70;71.40;;;;;;5164928;28;20046;-72
2021/01/05 09:59:51;;;;;;;20.13;14.07;;;-3.70;71.70;;;;;;5165456;28;20485;-72
2021/01/05 10:02:22;;;;;;;19.35;13.77;;;-3.60;72.20;;;;;;5163248;28;20054;-72
2021/01/05 10:04:54;;;;;;;17.42;12.80;;;-3.60;71.70;;;;;;5165740;28;20786;-73
2021/01/05 10:07:26;;;;;;;20.83;14.68;;;-3.50;71.80;;;;;;5165512;28;20042;-72
2021/01/05 10:09:59;;;;;;;18.80;14.05;;;-3.50;71.20;;;;;;5162927;28;20117;-73
2021/01/05 10:12:31;;;;;;;18.42;13.98;;;-3.60;72.00;;;;;;5147261;28;20089;-73
2021/01/05 10:15:02;;;;;;;20.05;14.10;;;-3.50;71.90;;;;;;5165677;28;20070;-72
2021/01/05 10:17:34;;;;;;;17.15;13.65;;;-3.40;70.00;;;;;;5151378;28;20095;-73
2021/01/05 10:20:07;;;;;;;16.75;13.63;;;-3.50;70.40;;;;;;5164785;28;20049;-74
2021/01/05 10:22:39;;;;;;;15.98;12.90;;;-3.50;70.10;;;;;;5169418;28;20067;-74
2021/01/05 10:25:12;;;;;;;19.13;13.60;;;-3.40;69.40;;;;;;5163631;28;20046;-74
2021/01/05 10:27:43;;;;;;;17.33;12.30;;;-3.40;68.90;;;;;;5167341;28;20109;-72
2021/01/05 10:30:19;;;;;;;16.65;12.70;;;-3.40;69.00;;;;;;5163189;28;20061;-76
2021/01/05 10:32:50;;;;;;;18.65;12.65;;;-3.20;69.50;;;;;;5162797;28;20128;-76
2021/01/05 10:35:23;;;;;;;16.33;12.75;;;-3.30;68.70;;;;;;5162538;28;21509;-73
2021/01/05 10:37:55;;;;;;;17.10;13.18;;;-3.40;69.30;;;;;;5158616;28;20100;-74
2021/01/05 10:40:26;;;;;;;18.10;13.77;;;-3.40;69.20;;;;;;5164310;28;20049;-76
2021/01/05 10:42:58;;;;;;;16.67;12.70;;;-3.40;69.40;;;;;;5162924;28;20470;-73
2021/01/05 10:45:29;;;;;;;16.85;12.90;;;-3.40;68.80;;;;;;5161326;28;20049;-73
2021/01/05 10:48:01;;;;;;;17.63;13.15;;;-3.30;69.10;;;;;;5160763;28;20042;-74
2021/01/05 10:50:33;;;;;;;19.65;13.45;;;-3.20;70.20;;;;;;5144889;28;20046;-74
2021/01/05 10:53:04;;;;;;;19.92;14.52;;;-3.10;68.50;;;;;;5165514;28;20070;-74
2021/01/05 10:55:36;;;;;;;18.00;12.82;;;-3.10;69.70;;;;;;5168566;28;20161;-74
2021/01/05 10:58:07;;;;;;;16.27;13.15;;;-3.10;68.00;;;;;;5161273;28;20038;-75
2021/01/05 11:00:39;;;;;;;19.30;13.57;;;-3.00;68.90;;;;;;5132622;28;20046;-74
2021/01/05 11:03:10;;;;;;;23.60;16.35;;;-2.80;68.30;;;;;;5163435;28;20089;-74
2021/01/05 11:05:41;;;;;;;20.17;14.30;;;-2.70;69.00;;;;;;5161394;28;20093;-75
2021/01/05 11:08:13;;;;;;;20.38;14.25;;;-2.60;69.20;;;;;;5161764;28;20441;-75
2021/01/05 11:10:44;;;;;;;19.00;14.57;;;-2.50;68.30;;;;;;5161961;28;20116;-75
2021/01/05 11:13:16;;;;;;;18.15;14.00;;;-2.40;69.60;;;;;;5165052;28;20116;-74
2021/01/05 11:15:47;;;;;;;17.60;13.15;;;-2.20;68.70;;;;;;5165052;28;20050;-75
2021/01/05 11:18:19;;;;;;;19.58;14.63;;;-2.10;67.60;;;;;;5161101;28;20045;-74
2021/01/05 11:20:50;;;;;;;17.13;13.60;;;-2.00;68.40;;;;;;5167137;28;20655;-76
2021/01/05 11:23:23;;;;;;;17.52;14.38;;;-2.10;67.60;;;;;;5164506;28;20045;-76
2021/01/05 11:25:54;;;;;;;18.80;14.23;;;-2.00;68.30;;;;;;5147730;28;20046;-77
2021/01/05 11:28:26;;;;;;;19.15;15.05;;;-1.80;67.00;;;;;;5144925;28;20046;-78
2021/01/05 11:30:57;;;;;;;20.52;14.43;;;-1.70;68.10;;;;;;5138889;28;20049;-78
2021/01/05 11:33:29;;;;;;;19.80;15.32;;;-1.60;66.30;;;;;;5156116;28;20128;-78
2021/01/05 11:36:00;;;;;;;22.25;16.63;;;-1.60;66.20;;;;;;5166186;28;20520;-77
2021/01/05 11:38:32;;;;;;;22.25;15.95;;;-1.50;66.40;;;;;;5165115;28;20097;-78
2021/01/05 11:41:27;;;;;;;16.73;13.30;;;-1.50;66.80;;;;;;5155034;28;20064;-78
2021/01/05 11:44:00;;;;;;;18.88;14.98;;;-1.50;65.60;;;;;;5166056;28;20042;-77
2021/01/05 11:46:32;;;;;;;18.67;14.88;;;-1.40;66.70;;;;;;5153384;28;20057;-78
2021/01/05 11:49:04;;;;;;;22.00;16.67;;;-1.40;65.80;;;;;;5147178;28;20048;-78
2021/01/05 11:51:37;;;;;;;22.60;16.15;;;-1.30;66.60;;;;;;5167324;28;20041;-77
2021/01/05 11:54:08;;;;;;;19.60;15.57;;;-1.20;66.20;;;;;;5171893;28;20053;-78
2021/01/05 11:56:40;;;;;;;25.88;17.83;;;-1.20;64.70;;;;;;5165638;28;20516;-78
2021/01/05 11:59:12;;;;;;;24.95;18.60;;;-1.20;66.40;;;;;;5168183;28;20452;-77
2021/01/05 12:01:44;;;;;;;20.40;14.65;;;-1.20;66.30;;;;;;5166694;28;20046;-78
2021/01/05 12:04:16;;;;;;;21.40;15.63;;;-1.20;65.00;;;;;;5153913;28;20034;-78
2021/01/05 12:06:52;;;;;;;26.38;16.58;;;-1.20;65.50;;;;;;5171437;28;20107;-78
2021/01/05 12:09:26;;;;;;;24.10;17.20;;;-1.10;65.90;;;;;;5165564;28;20049;-78
2021/01/05 12:12:00;;;;;;;26.55;19.17;;;-1.00;66.40;;;;;;5167265;28;20449;-76
2021/01/05 12:14:32;;;;;;;25.55;19.05;;;-1.00;66.50;;;;;;5164264;28;20045;-76
2021/01/05 12:17:04;;;;;;;22.48;15.57;;;-0.80;65.60;;;;;;5161357;28;20132;-76
2021/01/05 12:19:40;;;;;;;19.13;15.23;;;-0.80;65.40;;;;;;5146933;28;20049;-76
2021/01/05 12:22:12;;;;;;;20.05;15.70;;;-0.80;65.20;;;;;;5164908;28;20042;-76
2021/01/05 12:24:44;;;;;;;20.00;15.02;;;-0.80;64.10;;;;;;5147817;28;20160;-77
2021/01/05 12:27:20;;;;;;;21.50;15.48;;;-0.80;64.80;;;;;;5164676;28;20042;-78
2021/01/05 12:29:52;;;;;;;21.55;15.73;;;-0.70;64.90;;;;;;5164084;28;20573;-77
2021/01/05 12:32:23;;;;;;;32.33;24.70;;;-0.60;64.90;;;;;;5147408;28;20042;-77
2021/01/05 12:34:55;;;;;;;23.63;17.83;;;-0.50;64.80;;;;;;5165732;28;20046;-76
2021/01/05 12:37:28;;;;;;;23.63;16.88;;;-0.50;64.40;;;;;;5122147;28;20065;-78
2021/01/05 12:40:02;;;;;;;18.67;15.10;;;-0.50;64.20;;;;;;5155904;28;20042;-77
2021/01/05 12:42:33;;;;;;;19.63;15.63;;;-0.50;63.90;;;;;;5164332;28;20050;-78
2021/01/05 12:45:05;;;;;;;22.00;15.35;;;-0.70;64.80;;;;;;5165287;28;20050;-77
2021/01/05 12:47:37;;;;;;;19.83;15.48;;;-0.80;64.80;;;;;;5165303;28;20079;-73
2021/01/05 12:50:09;;;;;;;31.98;23.65;;;-0.90;64.50;;;;;;5161330;28;20046;-77
2021/01/05 12:52:40;;;;;;;43.85;29.45;;;-0.90;64.60;;;;;;5141187;28;20058;-76
2021/01/05 12:55:12;;;;;;;24.85;18.65;;;-0.90;65.10;;;;;;5137875;28;20112;-77
2021/01/05 12:57:44;;;;;;;24.55;16.88;;;-0.70;64.90;;;;;;5121411;28;20049;-76
2021/01/05 13:00:18;;;;;;;24.17;16.55;;;-0.70;65.30;;;;;;5134013;28;20039;-76
2021/01/05 13:02:50;;;;;;;22.13;18.15;;;-0.50;65.10;;;;;;5154476;28;20136;-76
2021/01/05 13:05:21;;;;;;;21.50;16.65;;;-0.40;65.40;;;;;;5164475;28;20050;-77
2021/01/05 13:07:53;;;;;;;22.05;16.65;;;-0.20;64.60;;;;;;5121636;28;20838;-76
2021/01/05 13:10:27;;;;;;;22.30;15.85;;;-0.10;64.70;;;;;;5146244;28;20492;-76
2021/01/05 13:12:58;;;;;;;19.80;15.25;;;-0.10;65.00;;;;;;5168492;28;20100;-77
2021/01/05 13:15:30;;;;;;;23.02;16.17;;;0.00;63.60;;;;;;5165650;28;20425;-74
2021/01/05 13:18:02;;;;;;;24.52;16.48;;;0.10;63.40;;;;;;5156204;28;21061;-78
2021/01/05 13:20:34;;;;;;;21.98;16.40;;;0.10;63.30;;;;;;5164479;28;20128;-75
2021/01/05 13:23:06;;;;;;;23.40;17.33;;;0.10;63.00;;;;;;5164993;28;20547;-76
2021/01/05 13:25:40;;;;;;;23.13;16.10;;;0.10;63.10;;;;;;5147310;28;20606;-76
2021/01/05 13:28:12;;;;;;;21.98;16.77;;;0.10;62.90;;;;;;5167739;28;20046;-74